sensor_id;sensor_type;location;lat;lon;timestamp;P1;durP1;ratioP1;P2;durP2;ratioP2
62435;SDS011;48480;50.252;18.848;2023-03-14T00:00:06;6.10;;;3.50;;
62435;SDS011;48480;50.252;18.848;2023-03-14T00:02:33;5.60;;;3.20;;
62435;SDS011;48480;50.252;18.848;2023-03-14T00:05:00;6.70;;;2.90;;
62435;SDS011;48480;50.252;18.848;2023-03-14T00:07:27;4.20;;;2.70;;
62435;SDS011;48480;50.252;18.848;2023-03-14T00:09:53;6.10;;;2.70;;
62435;SDS011;48480;50.252;18.848;2023-03-14T00:12:18;4.60;;;2.60;;
62435;SDS011;48480;50.252;18.848;2023-03-14T00:14:44;4.70;;;2.80;;
62435;SDS011;48480;50.252;18.848;2023-03-14T00:17:09;6.70;;;3.20;;
62435;SDS011;48480;50.252;18.848;2023-03-14T00:19:34;5.20;;;2.50;;
62435;SDS011;48480;50.252;18.848;2023-03-14T00:22:00;7.40;;;2.80;;
62435;SDS011;48480;50.252;18.848;2023-03-14T00:24:26;4.70;;;2.50;;
62435;SDS011;48480;50.252;18.848;2023-03-14T00:26:51;5.00;;;2.90;;
62435;SDS011;48480;50.252;18.848;2023-03-14T00:29:16;4.90;;;2.70;;
62435;SDS011;48480;50.252;18.848;2023-03-14T00:31:42;3.90;;;2.30;;
62435;SDS011;48480;50.252;18.848;2023-03-14T00:34:07;7.80;;;2.60;;
62435;SDS011;48480;50.252;18.848;2023-03-14T00:36:32;5.30;;;3.00;;
62435;SDS011;48480;50.252;18.848;2023-03-14T00:38:58;6.60;;;2.60;;
62435;SDS011;48480;50.252;18.848;2023-03-14T00:41:23;3.40;;;2.30;;
62435;SDS011;48480;50.252;18.848;2023-03-14T00:43:49;5.10;;;2.90;;
62435;SDS011;48480;50.252;18.848;2023-03-14T00:46:16;3.60;;;2.20;;
62435;SDS011;48480;50.252;18.848;2023-03-14T00:48:42;4.70;;;2.90;;
62435;SDS011;48480;50.252;18.848;2023-03-14T00:51:10;4.00;;;2.40;;
62435;SDS011;48480;50.252;18.848;2023-03-14T00:53:39;5.00;;;2.50;;
62435;SDS011;48480;50.252;18.848;2023-03-14T00:56:05;3.90;;;2.40;;
62435;SDS011;48480;50.252;18.848;2023-03-14T00:58:33;5.40;;;2.60;;
62435;SDS011;48480;50.252;18.848;2023-03-14T01:00:58;6.00;;;2.80;;
62435;SDS011;48480;50.252;18.848;2023-03-14T01:03:24;4.60;;;2.60;;
62435;SDS011;48480;50.252;18.848;2023-03-14T01:05:50;3.60;;;2.50;;
62435;SDS011;48480;50.252;18.848;2023-03-14T01:08:15;4.60;;;2.50;;
62435;SDS011;48480;50.252;18.848;2023-03-14T01:10:41;5.10;;;3.20;;
62435;SDS011;48480;50.252;18.848;2023-03-14T01:13:07;5.60;;;2.70;;
62435;SDS011;48480;50.252;18.848;2023-03-14T01:15:34;5.20;;;2.70;;
62435;SDS011;48480;50.252;18.848;2023-03-14T01:18:01;4.30;;;2.30;;
62435;SDS011;48480;50.252;18.848;2023-03-14T01:20:27;2.60;;;1.70;;
62435;SDS011;48480;50.252;18.848;2023-03-14T01:22:53;4.10;;;2.60;;
62435;SDS011;48480;50.252;18.848;2023-03-14T01:25:19;6.10;;;2.60;;
62435;SDS011;48480;50.252;18.848;2023-03-14T01:27:44;6.20;;;2.80;;
62435;SDS011;48480;50.252;18.848;2023-03-14T01:30:10;5.70;;;2.40;;
62435;SDS011;48480;50.252;18.848;2023-03-14T01:32:37;4.50;;;2.90;;
62435;SDS011;48480;50.252;18.848;2023-03-14T01:35:02;5.50;;;2.90;;
62435;SDS011;48480;50.252;18.848;2023-03-14T01:37:28;5.60;;;2.50;;
62435;SDS011;48480;50.252;18.848;2023-03-14T01:39:54;6.80;;;3.30;;
62435;SDS011;48480;50.252;18.848;2023-03-14T01:42:19;5.90;;;3.30;;
62435;SDS011;48480;50.252;18.848;2023-03-14T01:44:58;4.80;;;3.10;;
62435;SDS011;48480;50.252;18.848;2023-03-14T01:47:25;5.30;;;3.00;;
62435;SDS011;48480;50.252;18.848;2023-03-14T01:50:04;4.80;;;3.20;;
62435;SDS011;48480;50.252;18.848;2023-03-14T01:52:45;6.90;;;3.30;;
62435;SDS011;48480;50.252;18.848;2023-03-14T01:55:17;5.10;;;3.30;;
62435;SDS011;48480;50.252;18.848;2023-03-14T01:57:50;6.40;;;3.50;;
62435;SDS011;48480;50.252;18.848;2023-03-14T02:00:23;5.50;;;3.40;;
62435;SDS011;48480;50.252;18.848;2023-03-14T02:02:50;5.60;;;3.30;;
62435;SDS011;48480;50.252;18.848;2023-03-14T02:05:22;4.80;;;3.40;;
62435;SDS011;48480;50.252;18.848;2023-03-14T02:07:51;5.80;;;3.60;;
62435;SDS011;48480;50.252;18.848;2023-03-14T02:10:19;7.20;;;4.10;;
62435;SDS011;48480;50.252;18.848;2023-03-14T02:12:47;6.80;;;4.10;;
62435;SDS011;48480;50.252;18.848;2023-03-14T02:15:14;6.20;;;4.20;;
62435;SDS011;48480;50.252;18.848;2023-03-14T02:17:43;5.80;;;3.40;;
62435;SDS011;48480;50.252;18.848;2023-03-14T02:22:39;5.10;;;4.00;;
62435;SDS011;48480;50.252;18.848;2023-03-14T02:25:18;8.80;;;3.90;;
62435;SDS011;48480;50.252;18.848;2023-03-14T02:28:05;7.10;;;3.80;;
62435;SDS011;48480;50.252;18.848;2023-03-14T02:30:31;7.40;;;5.30;;
62435;SDS011;48480;50.252;18.848;2023-03-14T02:33:05;5.20;;;3.40;;
62435;SDS011;48480;50.252;18.848;2023-03-14T02:41:06;4.90;;;3.40;;
62435;SDS011;48480;50.252;18.848;2023-03-14T02:43:32;5.60;;;3.50;;
62435;SDS011;48480;50.252;18.848;2023-03-14T02:45:58;6.00;;;3.20;;
62435;SDS011;48480;50.252;18.848;2023-03-14T02:48:28;6.50;;;3.40;;
62435;SDS011;48480;50.252;18.848;2023-03-14T02:50:57;10.00;;;4.00;;
62435;SDS011;48480;50.252;18.848;2023-03-14T02:53:26;6.60;;;3.30;;
62435;SDS011;48480;50.252;18.848;2023-03-14T02:55:54;4.20;;;3.10;;
62435;SDS011;48480;50.252;18.848;2023-03-14T02:58:20;5.80;;;4.00;;
62435;SDS011;48480;50.252;18.848;2023-03-14T03:00:45;7.10;;;4.10;;
62435;SDS011;48480;50.252;18.848;2023-03-14T03:03:11;6.90;;;4.40;;
62435;SDS011;48480;50.252;18.848;2023-03-14T03:05:37;9.10;;;4.00;;
62435;SDS011;48480;50.252;18.848;2023-03-14T03:08:02;6.40;;;3.00;;
62435;SDS011;48480;50.252;18.848;2023-03-14T03:10:28;5.90;;;3.10;;
62435;SDS011;48480;50.252;18.848;2023-03-14T03:12:54;7.40;;;3.20;;
62435;SDS011;48480;50.252;18.848;2023-03-14T03:15:20;7.10;;;3.50;;
62435;SDS011;48480;50.252;18.848;2023-03-14T03:17:45;7.70;;;3.80;;
62435;SDS011;48480;50.252;18.848;2023-03-14T03:20:11;5.90;;;3.50;;
62435;SDS011;48480;50.252;18.848;2023-03-14T03:22:37;7.40;;;3.50;;
62435;SDS011;48480;50.252;18.848;2023-03-14T03:25:03;6.20;;;3.20;;
62435;SDS011;48480;50.252;18.848;2023-03-14T03:27:30;9.10;;;3.40;;
62435;SDS011;48480;50.252;18.848;2023-03-14T03:29:57;5.30;;;2.80;;
62435;SDS011;48480;50.252;18.848;2023-03-14T03:32:22;9.70;;;4.10;;
62435;SDS011;48480;50.252;18.848;2023-03-14T03:34:48;6.80;;;3.60;;
62435;SDS011;48480;50.252;18.848;2023-03-14T03:37:13;8.30;;;3.30;;
62435;SDS011;48480;50.252;18.848;2023-03-14T03:39:39;5.70;;;3.30;;
62435;SDS011;48480;50.252;18.848;2023-03-14T03:42:04;5.50;;;3.30;;
62435;SDS011;48480;50.252;18.848;2023-03-14T03:44:30;6.10;;;3.10;;
62435;SDS011;48480;50.252;18.848;2023-03-14T03:46:55;6.60;;;3.10;;
62435;SDS011;48480;50.252;18.848;2023-03-14T03:49:20;5.10;;;3.00;;
62435;SDS011;48480;50.252;18.848;2023-03-14T03:51:46;5.90;;;2.80;;
62435;SDS011;48480;50.252;18.848;2023-03-14T03:54:12;6.00;;;3.30;;
62435;SDS011;48480;50.252;18.848;2023-03-14T03:56:37;5.30;;;3.10;;
62435;SDS011;48480;50.252;18.848;2023-03-14T03:59:03;4.80;;;3.00;;
62435;SDS011;48480;50.252;18.848;2023-03-14T04:01:28;8.30;;;3.30;;
62435;SDS011;48480;50.252;18.848;2023-03-14T04:03:54;5.00;;;2.80;;
62435;SDS011;48480;50.252;18.848;2023-03-14T04:06:19;9.60;;;3.60;;
62435;SDS011;48480;50.252;18.848;2023-03-14T04:08:45;5.80;;;3.40;;
62435;SDS011;48480;50.252;18.848;2023-03-14T04:11:10;7.40;;;3.90;;
62435;SDS011;48480;50.252;18.848;2023-03-14T04:13:36;8.10;;;3.90;;
62435;SDS011;48480;50.252;18.848;2023-03-14T04:16:01;5.90;;;3.50;;
62435;SDS011;48480;50.252;18.848;2023-03-14T04:18:26;7.80;;;3.90;;
62435;SDS011;48480;50.252;18.848;2023-03-14T04:20:52;6.30;;;3.70;;
62435;SDS011;48480;50.252;18.848;2023-03-14T04:23:22;6.30;;;3.70;;
62435;SDS011;48480;50.252;18.848;2023-03-14T04:25:52;7.10;;;3.60;;
62435;SDS011;48480;50.252;18.848;2023-03-14T04:28:18;6.80;;;3.90;;
62435;SDS011;48480;50.252;18.848;2023-03-14T04:30:44;6.40;;;3.60;;
62435;SDS011;48480;50.252;18.848;2023-03-14T04:33:09;6.20;;;3.50;;
62435;SDS011;48480;50.252;18.848;2023-03-14T04:35:36;6.20;;;3.70;;
62435;SDS011;48480;50.252;18.848;2023-03-14T04:38:01;7.10;;;4.00;;
62435;SDS011;48480;50.252;18.848;2023-03-14T04:40:27;6.50;;;4.30;;
62435;SDS011;48480;50.252;18.848;2023-03-14T04:42:53;11.70;;;4.70;;
62435;SDS011;48480;50.252;18.848;2023-03-14T04:45:18;6.20;;;3.80;;
62435;SDS011;48480;50.252;18.848;2023-03-14T04:47:44;8.30;;;4.30;;
62435;SDS011;48480;50.252;18.848;2023-03-14T04:50:09;7.90;;;3.40;;
62435;SDS011;48480;50.252;18.848;2023-03-14T04:52:35;8.50;;;3.40;;
62435;SDS011;48480;50.252;18.848;2023-03-14T04:55:01;4.10;;;2.80;;
62435;SDS011;48480;50.252;18.848;2023-03-14T04:57:26;7.60;;;3.80;;
62435;SDS011;48480;50.252;18.848;2023-03-14T04:59:52;7.80;;;3.50;;
62435;SDS011;48480;50.252;18.848;2023-03-14T05:02:17;6.10;;;3.40;;
62435;SDS011;48480;50.252;18.848;2023-03-14T05:04:42;5.30;;;3.10;;
62435;SDS011;48480;50.252;18.848;2023-03-14T05:07:08;8.00;;;4.00;;
62435;SDS011;48480;50.252;18.848;2023-03-14T05:09:33;8.20;;;4.10;;
62435;SDS011;48480;50.252;18.848;2023-03-14T05:11:59;8.40;;;4.40;;
62435;SDS011;48480;50.252;18.848;2023-03-14T05:14:24;8.00;;;4.30;;
62435;SDS011;48480;50.252;18.848;2023-03-14T05:16:50;8.70;;;4.90;;
62435;SDS011;48480;50.252;18.848;2023-03-14T05:19:15;11.30;;;5.30;;
62435;SDS011;48480;50.252;18.848;2023-03-14T05:21:40;9.60;;;5.10;;
62435;SDS011;48480;50.252;18.848;2023-03-14T05:24:06;11.50;;;6.00;;
62435;SDS011;48480;50.252;18.848;2023-03-14T05:26:32;10.70;;;5.70;;
62435;SDS011;48480;50.252;18.848;2023-03-14T05:28:57;10.60;;;5.70;;
62435;SDS011;48480;50.252;18.848;2023-03-14T05:31:23;12.10;;;6.60;;
62435;SDS011;48480;50.252;18.848;2023-03-14T05:33:48;15.80;;;7.30;;
62435;SDS011;48480;50.252;18.848;2023-03-14T05:36:13;31.10;;;15.00;;
62435;SDS011;48480;50.252;18.848;2023-03-14T05:38:39;45.70;;;21.40;;
62435;SDS011;48480;50.252;18.848;2023-03-14T05:41:04;35.70;;;18.50;;
62435;SDS011;48480;50.252;18.848;2023-03-14T05:43:30;22.00;;;11.80;;
62435;SDS011;48480;50.252;18.848;2023-03-14T05:45:55;16.60;;;9.20;;
62435;SDS011;48480;50.252;18.848;2023-03-14T05:48:21;12.40;;;6.40;;
62435;SDS011;48480;50.252;18.848;2023-03-14T05:50:47;8.90;;;5.00;;
62435;SDS011;48480;50.252;18.848;2023-03-14T05:53:13;9.50;;;4.60;;
62435;SDS011;48480;50.252;18.848;2023-03-14T05:55:39;7.80;;;4.80;;
62435;SDS011;48480;50.252;18.848;2023-03-14T05:58:05;8.60;;;4.20;;
62435;SDS011;48480;50.252;18.848;2023-03-14T06:00:31;6.70;;;3.40;;
62435;SDS011;48480;50.252;18.848;2023-03-14T06:02:57;9.90;;;4.00;;
62435;SDS011;48480;50.252;18.848;2023-03-14T06:05:22;6.60;;;4.20;;
62435;SDS011;48480;50.252;18.848;2023-03-14T06:07:48;8.20;;;3.80;;
62435;SDS011;48480;50.252;18.848;2023-03-14T06:10:19;5.80;;;3.20;;
62435;SDS011;48480;50.252;18.848;2023-03-14T06:12:44;5.30;;;3.20;;
62435;SDS011;48480;50.252;18.848;2023-03-14T06:15:10;6.20;;;3.50;;
62435;SDS011;48480;50.252;18.848;2023-03-14T06:17:35;5.10;;;3.30;;
62435;SDS011;48480;50.252;18.848;2023-03-14T06:20:00;6.20;;;3.80;;
62435;SDS011;48480;50.252;18.848;2023-03-14T06:22:26;6.70;;;4.10;;
62435;SDS011;48480;50.252;18.848;2023-03-14T06:25:00;5.20;;;3.40;;
62435;SDS011;48480;50.252;18.848;2023-03-14T06:27:26;7.40;;;3.70;;
62435;SDS011;48480;50.252;18.848;2023-03-14T06:29:51;4.80;;;3.20;;
62435;SDS011;48480;50.252;18.848;2023-03-14T06:32:16;6.40;;;3.10;;
62435;SDS011;48480;50.252;18.848;2023-03-14T06:34:43;5.20;;;3.20;;
62435;SDS011;48480;50.252;18.848;2023-03-14T06:37:11;7.80;;;4.90;;
62435;SDS011;48480;50.252;18.848;2023-03-14T06:39:55;7.20;;;3.30;;
62435;SDS011;48480;50.252;18.848;2023-03-14T06:42:21;6.10;;;3.40;;
62435;SDS011;48480;50.252;18.848;2023-03-14T06:44:47;9.60;;;5.40;;
62435;SDS011;48480;50.252;18.848;2023-03-14T06:47:13;8.20;;;4.80;;
62435;SDS011;48480;50.252;18.848;2023-03-14T06:49:42;6.90;;;3.70;;
62435;SDS011;48480;50.252;18.848;2023-03-14T06:52:08;7.30;;;4.10;;
62435;SDS011;48480;50.252;18.848;2023-03-14T06:54:33;6.70;;;3.40;;
62435;SDS011;48480;50.252;18.848;2023-03-14T06:56:59;8.00;;;3.60;;
62435;SDS011;48480;50.252;18.848;2023-03-14T06:59:24;8.00;;;3.60;;
62435;SDS011;48480;50.252;18.848;2023-03-14T07:01:50;8.80;;;3.80;;
62435;SDS011;48480;50.252;18.848;2023-03-14T07:04:16;5.70;;;3.70;;
62435;SDS011;48480;50.252;18.848;2023-03-14T07:06:42;6.60;;;3.90;;
62435;SDS011;48480;50.252;18.848;2023-03-14T07:09:12;8.60;;;3.50;;
62435;SDS011;48480;50.252;18.848;2023-03-14T07:11:38;8.00;;;3.50;;
62435;SDS011;48480;50.252;18.848;2023-03-14T07:14:06;5.00;;;2.90;;
62435;SDS011;48480;50.252;18.848;2023-03-14T07:16:43;7.00;;;3.00;;
62435;SDS011;48480;50.252;18.848;2023-03-14T07:19:10;7.20;;;3.80;;
62435;SDS011;48480;50.252;18.848;2023-03-14T07:21:35;6.20;;;3.40;;
62435;SDS011;48480;50.252;18.848;2023-03-14T07:24:02;7.60;;;4.10;;
62435;SDS011;48480;50.252;18.848;2023-03-14T07:26:27;8.00;;;4.50;;
62435;SDS011;48480;50.252;18.848;2023-03-14T07:28:53;7.60;;;4.50;;
62435;SDS011;48480;50.252;18.848;2023-03-14T07:31:19;5.90;;;3.30;;
62435;SDS011;48480;50.252;18.848;2023-03-14T07:33:45;9.80;;;4.70;;
62435;SDS011;48480;50.252;18.848;2023-03-14T07:36:10;8.60;;;4.20;;
62435;SDS011;48480;50.252;18.848;2023-03-14T07:38:36;8.50;;;4.40;;
62435;SDS011;48480;50.252;18.848;2023-03-14T07:41:03;16.30;;;8.80;;
62435;SDS011;48480;50.252;18.848;2023-03-14T07:43:30;12.10;;;7.80;;
62435;SDS011;48480;50.252;18.848;2023-03-14T07:45:56;28.20;;;15.70;;
62435;SDS011;48480;50.252;18.848;2023-03-14T07:48:25;15.00;;;10.20;;
62435;SDS011;48480;50.252;18.848;2023-03-14T07:50:52;12.60;;;8.90;;
62435;SDS011;48480;50.252;18.848;2023-03-14T07:53:18;15.40;;;8.80;;
62435;SDS011;48480;50.252;18.848;2023-03-14T07:55:44;13.30;;;6.40;;
62435;SDS011;48480;50.252;18.848;2023-03-14T07:58:09;12.40;;;5.40;;
62435;SDS011;48480;50.252;18.848;2023-03-14T08:00:35;8.50;;;4.40;;
62435;SDS011;48480;50.252;18.848;2023-03-14T08:03:06;8.50;;;3.80;;
62435;SDS011;48480;50.252;18.848;2023-03-14T08:05:35;11.30;;;5.70;;
62435;SDS011;48480;50.252;18.848;2023-03-14T08:08:02;11.60;;;4.70;;
62435;SDS011;48480;50.252;18.848;2023-03-14T08:10:28;8.60;;;4.30;;
62435;SDS011;48480;50.252;18.848;2023-03-14T08:12:58;9.30;;;4.10;;
62435;SDS011;48480;50.252;18.848;2023-03-14T08:15:28;8.40;;;4.20;;
62435;SDS011;48480;50.252;18.848;2023-03-14T08:17:55;9.30;;;5.20;;
62435;SDS011;48480;50.252;18.848;2023-03-14T08:20:21;8.20;;;4.60;;
62435;SDS011;48480;50.252;18.848;2023-03-14T08:22:48;8.00;;;4.70;;
62435;SDS011;48480;50.252;18.848;2023-03-14T08:25:14;8.80;;;4.10;;
62435;SDS011;48480;50.252;18.848;2023-03-14T08:27:49;5.80;;;3.30;;
62435;SDS011;48480;50.252;18.848;2023-03-14T08:32:43;8.70;;;4.40;;
62435;SDS011;48480;50.252;18.848;2023-03-14T08:35:09;8.20;;;4.10;;
62435;SDS011;48480;50.252;18.848;2023-03-14T08:37:35;8.10;;;4.50;;
62435;SDS011;48480;50.252;18.848;2023-03-14T08:40:04;7.40;;;3.70;;
62435;SDS011;48480;50.252;18.848;2023-03-14T08:42:32;9.90;;;4.20;;
62435;SDS011;48480;50.252;18.848;2023-03-14T08:44:58;8.80;;;5.00;;
62435;SDS011;48480;50.252;18.848;2023-03-14T08:47:23;8.20;;;5.00;;
62435;SDS011;48480;50.252;18.848;2023-03-14T08:49:48;6.40;;;3.70;;
62435;SDS011;48480;50.252;18.848;2023-03-14T08:52:14;7.30;;;4.20;;
62435;SDS011;48480;50.252;18.848;2023-03-14T08:54:41;8.00;;;4.20;;
62435;SDS011;48480;50.252;18.848;2023-03-14T08:57:10;6.50;;;4.20;;
62435;SDS011;48480;50.252;18.848;2023-03-14T08:59:35;10.60;;;5.50;;
62435;SDS011;48480;50.252;18.848;2023-03-14T09:02:01;13.00;;;5.70;;
62435;SDS011;48480;50.252;18.848;2023-03-14T09:04:29;9.30;;;4.90;;
62435;SDS011;48480;50.252;18.848;2023-03-14T09:06:55;8.40;;;4.80;;
62435;SDS011;48480;50.252;18.848;2023-03-14T09:09:31;9.50;;;5.50;;
62435;SDS011;48480;50.252;18.848;2023-03-14T09:11:56;9.60;;;5.40;;
62435;SDS011;48480;50.252;18.848;2023-03-14T09:14:22;11.30;;;6.20;;
62435;SDS011;48480;50.252;18.848;2023-03-14T09:16:48;14.50;;;5.50;;
62435;SDS011;48480;50.252;18.848;2023-03-14T09:19:14;10.40;;;5.60;;
62435;SDS011;48480;50.252;18.848;2023-03-14T09:21:43;9.30;;;5.10;;
62435;SDS011;48480;50.252;18.848;2023-03-14T09:24:09;10.90;;;4.60;;
62435;SDS011;48480;50.252;18.848;2023-03-14T09:26:34;13.40;;;5.90;;
62435;SDS011;48480;50.252;18.848;2023-03-14T09:29:00;11.80;;;5.00;;
62435;SDS011;48480;50.252;18.848;2023-03-14T09:31:25;9.90;;;4.80;;
62435;SDS011;48480;50.252;18.848;2023-03-14T09:33:52;7.90;;;4.00;;
62435;SDS011;48480;50.252;18.848;2023-03-14T09:36:23;6.40;;;3.30;;
62435;SDS011;48480;50.252;18.848;2023-03-14T09:38:48;6.70;;;4.00;;
62435;SDS011;48480;50.252;18.848;2023-03-14T09:44:00;8.90;;;4.50;;
62435;SDS011;48480;50.252;18.848;2023-03-14T09:46:42;8.90;;;5.30;;
62435;SDS011;48480;50.252;18.848;2023-03-14T09:49:15;6.80;;;4.00;;
62435;SDS011;48480;50.252;18.848;2023-03-14T09:51:54;7.70;;;4.00;;
62435;SDS011;48480;50.252;18.848;2023-03-14T09:54:35;7.10;;;3.80;;
62435;SDS011;48480;50.252;18.848;2023-03-14T09:57:11;7.30;;;3.40;;
62435;SDS011;48480;50.252;18.848;2023-03-14T09:59:41;8.90;;;4.10;;
62435;SDS011;48480;50.252;18.848;2023-03-14T10:02:20;7.20;;;4.20;;
62435;SDS011;48480;50.252;18.848;2023-03-14T10:04:50;8.30;;;4.30;;
62435;SDS011;48480;50.252;18.848;2023-03-14T10:07:27;10.00;;;4.70;;
62435;SDS011;48480;50.252;18.848;2023-03-14T10:09:54;6.70;;;4.20;;
62435;SDS011;48480;50.252;18.848;2023-03-14T10:12:43;12.40;;;4.20;;
62435;SDS011;48480;50.252;18.848;2023-03-14T10:15:11;10.40;;;5.00;;
62435;SDS011;48480;50.252;18.848;2023-03-14T10:17:50;15.90;;;6.50;;
62435;SDS011;48480;50.252;18.848;2023-03-14T10:20:33;13.80;;;6.00;;
62435;SDS011;48480;50.252;18.848;2023-03-14T10:23:00;14.10;;;6.60;;
62435;SDS011;48480;50.252;18.848;2023-03-14T10:25:28;9.80;;;5.20;;
62435;SDS011;48480;50.252;18.848;2023-03-14T10:27:55;20.90;;;7.40;;
62435;SDS011;48480;50.252;18.848;2023-03-14T10:30:30;14.20;;;7.10;;
62435;SDS011;48480;50.252;18.848;2023-03-14T10:33:37;10.10;;;6.70;;
62435;SDS011;48480;50.252;18.848;2023-03-14T10:38:34;11.70;;;5.00;;
62435;SDS011;48480;50.252;18.848;2023-03-14T10:41:01;12.10;;;6.30;;
62435;SDS011;48480;50.252;18.848;2023-03-14T10:43:39;8.40;;;4.90;;
62435;SDS011;48480;50.252;18.848;2023-03-14T10:46:14;11.00;;;5.40;;
62435;SDS011;48480;50.252;18.848;2023-03-14T10:48:42;7.60;;;4.20;;
62435;SDS011;48480;50.252;18.848;2023-03-14T10:56:45;9.90;;;4.80;;
62435;SDS011;48480;50.252;18.848;2023-03-14T10:59:20;13.60;;;5.50;;
62435;SDS011;48480;50.252;18.848;2023-03-14T11:01:57;8.70;;;4.30;;
62435;SDS011;48480;50.252;18.848;2023-03-14T11:07:16;6.70;;;3.90;;
62435;SDS011;48480;50.252;18.848;2023-03-14T11:10:11;8.20;;;4.80;;
62435;SDS011;48480;50.252;18.848;2023-03-14T11:12:47;8.10;;;4.50;;
62435;SDS011;48480;50.252;18.848;2023-03-14T11:32:36;8.90;;;4.50;;
62435;SDS011;48480;50.252;18.848;2023-03-14T11:41:18;8.50;;;4.80;;
62435;SDS011;48480;50.252;18.848;2023-03-14T11:43:58;6.90;;;4.10;;
62435;SDS011;48480;50.252;18.848;2023-03-14T11:46:27;8.80;;;5.70;;
62435;SDS011;48480;50.252;18.848;2023-03-14T11:51:47;10.20;;;5.60;;
62435;SDS011;48480;50.252;18.848;2023-03-14T11:57:09;8.30;;;5.10;;
62435;SDS011;48480;50.252;18.848;2023-03-14T12:05:30;10.20;;;5.10;;
62435;SDS011;48480;50.252;18.848;2023-03-14T12:13:13;8.40;;;4.80;;
62435;SDS011;48480;50.252;18.848;2023-03-14T12:15:40;7.50;;;4.80;;
62435;SDS011;48480;50.252;18.848;2023-03-14T12:18:18;8.30;;;5.20;;
62435;SDS011;48480;50.252;18.848;2023-03-14T12:20:56;8.60;;;4.30;;
62435;SDS011;48480;50.252;18.848;2023-03-14T12:23:26;9.00;;;5.10;;
62435;SDS011;48480;50.252;18.848;2023-03-14T12:28:36;11.00;;;5.60;;
62435;SDS011;48480;50.252;18.848;2023-03-14T12:34:02;8.00;;;4.60;;
62435;SDS011;48480;50.252;18.848;2023-03-14T12:39:13;7.70;;;4.80;;
62435;SDS011;48480;50.252;18.848;2023-03-14T12:42:01;10.50;;;6.40;;
62435;SDS011;48480;50.252;18.848;2023-03-14T12:44:38;9.50;;;6.40;;
62435;SDS011;48480;50.252;18.848;2023-03-14T12:49:43;11.50;;;6.60;;
62435;SDS011;48480;50.252;18.848;2023-03-14T12:52:17;9.90;;;6.10;;
62435;SDS011;48480;50.252;18.848;2023-03-14T12:57:23;13.40;;;8.00;;
62435;SDS011;48480;50.252;18.848;2023-03-14T13:00:34;8.90;;;5.60;;
62435;SDS011;48480;50.252;18.848;2023-03-14T13:03:25;10.40;;;5.90;;
62435;SDS011;48480;50.252;18.848;2023-03-14T13:06:08;8.20;;;5.40;;
62435;SDS011;48480;50.252;18.848;2023-03-14T13:08:39;9.10;;;5.40;;
62435;SDS011;48480;50.252;18.848;2023-03-14T13:11:15;19.90;;;7.60;;
62435;SDS011;48480;50.252;18.848;2023-03-14T13:13:52;12.10;;;6.70;;
62435;SDS011;48480;50.252;18.848;2023-03-14T13:16:22;8.00;;;4.70;;
62435;SDS011;48480;50.252;18.848;2023-03-14T13:18:49;7.50;;;4.60;;
62435;SDS011;48480;50.252;18.848;2023-03-14T13:21:24;8.80;;;4.80;;
62435;SDS011;48480;50.252;18.848;2023-03-14T13:24:02;7.30;;;4.60;;
62435;SDS011;48480;50.252;18.848;2023-03-14T13:26:36;8.00;;;4.60;;
62435;SDS011;48480;50.252;18.848;2023-03-14T13:31:48;7.40;;;4.10;;
62435;SDS011;48480;50.252;18.848;2023-03-14T13:34:34;10.30;;;5.70;;
62435;SDS011;48480;50.252;18.848;2023-03-14T13:37:00;7.90;;;5.00;;
62435;SDS011;48480;50.252;18.848;2023-03-14T13:39:26;10.60;;;6.30;;
62435;SDS011;48480;50.252;18.848;2023-03-14T13:41:55;10.80;;;6.20;;
62435;SDS011;48480;50.252;18.848;2023-03-14T13:44:26;11.40;;;6.50;;
62435;SDS011;48480;50.252;18.848;2023-03-14T13:47:01;12.20;;;7.80;;
62435;SDS011;48480;50.252;18.848;2023-03-14T13:49:31;9.40;;;5.70;;
62435;SDS011;48480;50.252;18.848;2023-03-14T13:52:20;9.80;;;5.90;;
62435;SDS011;48480;50.252;18.848;2023-03-14T13:55:16;8.50;;;5.10;;
62435;SDS011;48480;50.252;18.848;2023-03-14T13:57:51;9.20;;;5.80;;
62435;SDS011;48480;50.252;18.848;2023-03-14T14:00:26;7.70;;;5.10;;
62435;SDS011;48480;50.252;18.848;2023-03-14T14:02:53;9.40;;;6.00;;
62435;SDS011;48480;50.252;18.848;2023-03-14T14:05:20;7.60;;;5.30;;
62435;SDS011;48480;50.252;18.848;2023-03-14T14:07:46;10.40;;;5.70;;
62435;SDS011;48480;50.252;18.848;2023-03-14T14:10:15;7.10;;;4.80;;
62435;SDS011;48480;50.252;18.848;2023-03-14T14:12:48;6.50;;;5.40;;
62435;SDS011;48480;50.252;18.848;2023-03-14T14:17:56;8.90;;;5.80;;
62435;SDS011;48480;50.252;18.848;2023-03-14T14:20:37;8.80;;;5.80;;
62435;SDS011;48480;50.252;18.848;2023-03-14T14:23:13;8.80;;;6.00;;
62435;SDS011;48480;50.252;18.848;2023-03-14T14:25:42;9.80;;;6.50;;
62435;SDS011;48480;50.252;18.848;2023-03-14T14:28:30;12.30;;;6.20;;
62435;SDS011;48480;50.252;18.848;2023-03-14T14:33:53;11.00;;;7.10;;
62435;SDS011;48480;50.252;18.848;2023-03-14T14:36:27;8.40;;;5.80;;
62435;SDS011;48480;50.252;18.848;2023-03-14T14:39:03;10.90;;;6.10;;
62435;SDS011;48480;50.252;18.848;2023-03-14T14:41:35;8.50;;;6.10;;
62435;SDS011;48480;50.252;18.848;2023-03-14T14:44:11;8.80;;;5.50;;
62435;SDS011;48480;50.252;18.848;2023-03-14T14:46:39;7.70;;;5.30;;
62435;SDS011;48480;50.252;18.848;2023-03-14T14:49:27;12.00;;;6.30;;
62435;SDS011;48480;50.252;18.848;2023-03-14T14:52:00;9.20;;;5.50;;
62435;SDS011;48480;50.252;18.848;2023-03-14T14:54:35;9.90;;;6.70;;
62435;SDS011;48480;50.252;18.848;2023-03-14T14:57:05;10.50;;;7.20;;
62435;SDS011;48480;50.252;18.848;2023-03-14T14:59:42;11.00;;;6.70;;
62435;SDS011;48480;50.252;18.848;2023-03-14T15:02:09;11.00;;;6.70;;
62435;SDS011;48480;50.252;18.848;2023-03-14T15:05:01;7.90;;;6.10;;
62435;SDS011;48480;50.252;18.848;2023-03-14T15:07:30;9.00;;;5.90;;
62435;SDS011;48480;50.252;18.848;2023-03-14T15:10:03;7.90;;;6.10;;
62435;SDS011;48480;50.252;18.848;2023-03-14T15:12:28;14.90;;;10.00;;
62435;SDS011;48480;50.252;18.848;2023-03-14T15:14:54;14.80;;;8.50;;
62435;SDS011;48480;50.252;18.848;2023-03-14T15:17:22;13.90;;;8.40;;
62435;SDS011;48480;50.252;18.848;2023-03-14T15:19:47;9.60;;;5.80;;
62435;SDS011;48480;50.252;18.848;2023-03-14T15:22:22;9.40;;;6.40;;
62435;SDS011;48480;50.252;18.848;2023-03-14T15:24:47;11.30;;;6.80;;
62435;SDS011;48480;50.252;18.848;2023-03-14T15:27:13;8.70;;;6.00;;
62435;SDS011;48480;50.252;18.848;2023-03-14T15:29:42;10.20;;;5.70;;
62435;SDS011;48480;50.252;18.848;2023-03-14T15:32:11;10.20;;;6.10;;
62435;SDS011;48480;50.252;18.848;2023-03-14T15:34:43;11.40;;;6.30;;
62435;SDS011;48480;50.252;18.848;2023-03-14T15:37:14;10.20;;;7.20;;
62435;SDS011;48480;50.252;18.848;2023-03-14T15:39:41;10.20;;;6.60;;
62435;SDS011;48480;50.252;18.848;2023-03-14T15:42:08;14.50;;;7.70;;
62435;SDS011;48480;50.252;18.848;2023-03-14T15:44:34;12.40;;;7.80;;
62435;SDS011;48480;50.252;18.848;2023-03-14T15:47:08;10.90;;;7.90;;
62435;SDS011;48480;50.252;18.848;2023-03-14T15:49:35;13.20;;;8.60;;
62435;SDS011;48480;50.252;18.848;2023-03-14T15:52:01;12.60;;;8.10;;
62435;SDS011;48480;50.252;18.848;2023-03-14T15:54:27;11.60;;;7.40;;
62435;SDS011;48480;50.252;18.848;2023-03-14T15:56:54;10.80;;;7.00;;
62435;SDS011;48480;50.252;18.848;2023-03-14T15:59:29;7.80;;;5.40;;
62435;SDS011;48480;50.252;18.848;2023-03-14T16:01:54;7.00;;;4.90;;
62435;SDS011;48480;50.252;18.848;2023-03-14T16:04:20;6.00;;;4.50;;
62435;SDS011;48480;50.252;18.848;2023-03-14T16:06:45;8.10;;;4.80;;